Time;durP1;ratioP1;P1;durP2;ratioP2;P2;SDS_P1;SDS_P2;PMS_P1;PMS_P2;Temp;Humidity;BMP_temperature;BMP_pressure;BME280_temperature;BME280_humidity;BME280_pressure;Samples;Min_cycle;Max_cycle;Signal;HPM_P1;HPM_P2
2022/06/09 00:00:57;;;;;;;;;;;12.60;99.90;;;;;;4952111;29;19911;-65
2022/06/09 00:03:26;;;;;;;;;;;12.60;99.90;;;;;;4952237;29;19918;-65
2022/06/09 00:05:51;;;;;;;;;;;12.60;99.90;;;;;;4961087;28;19910;-65
2022/06/09 00:08:18;;;;;;;;;;;12.50;99.90;;;;;;4974566;28;19922;-65
2022/06/09 00:10:47;;;;;;;;;;;12.50;99.90;;;;;;4974565;28;19906;-65
2022/06/09 00:13:13;;;;;;;;;;;12.50;99.90;;;;;;4974291;28;19916;-65
2022/06/09 00:15:38;;;;;;;;;;;12.50;99.90;;;;;;4974207;28;19997;-65
2022/06/09 00:18:04;;;;;;;;;;;12.50;99.90;;;;;;4974097;28;20009;-65
2022/06/09 00:20:30;;;;;;;;;;;12.50;99.90;;;;;;4972805;28;19906;-65
2022/06/09 00:22:55;;;;;;;;;;;12.50;99.90;;;;;;4973976;28;20337;-65
2022/06/09 00:25:21;;;;;;;;;;;12.50;99.90;;;;;;4968981;28;19912;-65
2022/06/09 00:27:46;;;;;;;;;;;12.40;99.90;;;;;;4951719;28;19917;-65
2022/06/09 00:30:13;;;;;;;;;;;12.40;99.90;;;;;;4951615;29;19910;-65
2022/06/09 00:32:38;;;;;;;;;;;12.40;99.90;;;;;;4953938;29;20383;-65
2022/06/09 00:35:04;;;;;;;;;;;12.40;99.90;;;;;;4956832;28;20009;-65
2022/06/09 00:37:29;;;;;;;;;;;12.40;99.90;;;;;;4973330;28;19918;-65
2022/06/09 00:39:55;;;;;;;;;;;12.40;99.90;;;;;;4974089;28;20360;-65
2022/06/09 00:42:21;;;;;;;;;;;12.40;99.90;;;;;;4973586;28;20290;-65
2022/06/09 00:44:47;;;;;;;;;;;12.40;99.90;;;;;;4973640;28;19914;-65
2022/06/09 00:47:21;;;;;;;;;;;12.40;99.90;;;;;;4973846;28;19906;-64
2022/06/09 00:49:56;;;;;;;;;;;12.40;99.90;;;;;;4973751;28;19996;-64
2022/06/09 00:52:23;;;;;;;;;;;12.40;99.90;;;;;;4973395;28;19906;-64
2022/06/09 00:54:52;;;;;;;;;;;12.40;99.90;;;;;;4973542;28;19936;-64
2022/06/09 00:57:23;;;;;;;;;;;12.40;99.90;;;;;;4973381;28;19992;-64
2022/06/09 00:59:51;;;;;;;;;;;12.30;99.90;;;;;;4973440;28;19921;-65
2022/06/09 01:02:18;;;;;;;;;;;12.30;99.90;;;;;;4970721;28;20009;-64
2022/06/09 01:04:44;;;;;;;;;;;12.20;99.90;;;;;;4970509;28;19926;-64
2022/06/09 01:07:13;;;;;;;;;;;12.20;99.90;;;;;;4970930;28;19906;-65
2022/06/09 01:09:39;;;;;;;;;;;12.20;99.90;;;;;;4973231;28;19983;-65
2022/06/09 01:12:40;;;;;;;;;;;12.10;99.90;;;;;;4973370;28;20503;-65
2022/06/09 01:15:16;;;;;;;;;;;12.10;99.90;;;;;;4951338;29;20482;-65
2022/06/09 01:17:41;;;;;;;;;;;12.10;99.90;;;;;;4970063;28;19906;-65
2022/06/09 01:20:26;;;;;;;;;;;12.10;99.90;;;;;;4973017;28;20593;-66
2022/06/09 01:22:58;;;;;;;;;;;12.00;99.90;;;;;;4972837;28;19939;-65
2022/06/09 01:25:47;;;;;;;;;;;12.00;99.90;;;;;;4972996;28;19957;-65
2022/06/09 01:28:28;;;;;;;;;;;12.00;99.90;;;;;;4962676;28;20119;-65
2022/06/09 01:30:58;;;;;;;;;;;12.00;99.90;;;;;;4972776;28;19913;-65
2022/06/09 01:33:46;;;;;;;;;;;11.90;99.90;;;;;;4972785;28;19906;-65
2022/06/09 01:36:14;;;;;;;;;;;11.90;99.90;;;;;;4972138;28;19918;-66
2022/06/09 01:38:50;;;;;;;;;;;11.90;99.90;;;;;;4972715;28;19931;-65
2022/06/09 01:41:16;;;;;;;;;;;11.90;99.90;;;;;;4972794;28;19964;-65
2022/06/09 01:43:43;;;;;;;;;;;11.80;99.90;;;;;;4972569;28;19914;-65
2022/06/09 01:46:12;;;;;;;;;;;11.80;99.90;;;;;;4963977;28;19910;-65
2022/06/09 01:48:38;;;;;;;;;;;11.80;99.90;;;;;;4952098;28;20263;-65
2022/06/09 01:51:06;;;;;;;;;;;11.80;99.90;;;;;;4949269;29;19950;-65
2022/06/09 01:53:47;;;;;;;;;;;11.70;99.90;;;;;;4950180;29;19933;-65
2022/06/09 01:56:19;;;;;;;;;;;11.70;99.90;;;;;;4950142;29;19953;-65
2022/06/09 01:58:52;;;;;;;;;;;11.70;99.90;;;;;;4950005;29;19957;-65
2022/06/09 02:01:21;;;;;;;;;;;11.70;99.90;;;;;;4958771;28;19949;-65
2022/06/09 02:03:48;;;;;;;;;;;11.70;99.90;;;;;;4969423;28;19918;-64
2022/06/09 02:06:14;;;;;;;;;;;11.70;99.90;;;;;;4972136;28;20008;-64
2022/06/09 02:08:40;;;;;;;;;;;11.70;99.90;;;;;;4972218;28;19989;-64
2022/06/09 02:11:10;;;;;;;;;;;11.70;99.90;;;;;;4972046;28;20297;-64
2022/06/09 02:13:39;;;;;;;;;;;11.70;99.90;;;;;;4972280;28;19961;-64
2022/06/09 02:16:06;;;;;;;;;;;11.70;99.90;;;;;;4972022;28;19910;-64
2022/06/09 02:18:35;;;;;;;;;;;11.70;99.90;;;;;;4971878;28;19942;-64
2022/06/09 02:21:02;;;;;;;;;;;11.70;99.90;;;;;;4971677;28;19960;-64
2022/06/09 02:23:28;;;;;;;;;;;11.80;99.90;;;;;;4971774;28;19965;-64
2022/06/09 02:25:54;;;;;;;;;;;11.90;99.90;;;;;;4972151;28;19945;-64
2022/06/09 02:28:19;;;;;;;;;;;11.90;99.90;;;;;;4971794;28;19910;-64
2022/06/09 02:30:45;;;;;;;;;;;12.00;99.90;;;;;;4971966;28;19948;-64
2022/06/09 02:33:11;;;;;;;;;;;12.00;99.90;;;;;;4970764;28;19960;-64
2022/06/09 02:35:37;;;;;;;;;;;12.00;99.90;;;;;;4960587;28;19957;-64
2022/06/09 02:38:03;;;;;;;;;;;12.00;99.90;;;;;;4971613;28;19906;-65
2022/06/09 02:40:29;;;;;;;;;;;12.00;99.90;;;;;;4971682;28;19910;-65
2022/06/09 02:42:55;;;;;;;;;;;12.00;99.90;;;;;;4971073;28;19925;-65
2022/06/09 02:45:21;;;;;;;;;;;12.00;99.90;;;;;;4971963;28;19906;-65
2022/06/09 02:47:47;;;;;;;;;;;12.00;99.90;;;;;;4971545;28;19913;-65
2022/06/09 02:50:13;;;;;;;;;;;12.00;99.90;;;;;;4971765;28;19917;-65
2022/06/09 02:52:38;;;;;;;;;;;12.00;99.90;;;;;;4971335;28;19910;-65
2022/06/09 02:55:04;;;;;;;;;;;12.00;99.90;;;;;;4969297;28;19913;-65
2022/06/09 02:57:30;;;;;;;;;;;12.10;99.90;;;;;;4968415;28;19917;-65
2022/06/09 02:59:56;;;;;;;;;;;12.10;99.90;;;;;;4968419;28;19910;-65
2022/06/09 03:02:21;;;;;;;;;;;12.10;99.90;;;;;;4968229;28;20076;-65
2022/06/09 03:04:47;;;;;;;;;;;12.10;99.90;;;;;;4970019;28;19976;-65
2022/06/09 03:07:13;;;;;;;;;;;12.10;99.90;;;;;;4971160;28;19910;-65
2022/06/09 03:09:39;;;;;;;;;;;12.10;99.90;;;;;;4971674;28;19910;-65
2022/06/09 03:12:05;;;;;;;;;;;12.10;99.90;;;;;;4971490;28;20350;-65
2022/06/09 03:14:31;;;;;;;;;;;12.10;99.90;;;;;;4971405;28;19958;-65
2022/06/09 03:16:56;;;;;;;;;;;12.20;99.90;;;;;;4971445;28;19913;-65
2022/06/09 03:19:22;;;;;;;;;;;12.20;99.90;;;;;;4971357;28;19973;-65
2022/06/09 03:21:47;;;;;;;;;;;12.20;99.90;;;;;;4970930;28;19953;-65
2022/06/09 03:24:13;;;;;;;;;;;12.30;99.90;;;;;;4971233;28;19957;-65
2022/06/09 03:26:38;;;;;;;;;;;12.30;99.90;;;;;;4971247;28;20371;-65
2022/06/09 03:29:04;;;;;;;;;;;12.30;99.90;;;;;;4971365;28;19996;-65
2022/06/09 03:31:30;;;;;;;;;;;12.30;99.90;;;;;;4971318;28;19910;-65
2022/06/09 03:33:56;;;;;;;;;;;12.30;99.90;;;;;;4971501;28;19988;-65
2022/06/09 03:36:21;;;;;;;;;;;12.20;99.90;;;;;;4970632;28;20360;-65
2022/06/09 03:38:47;;;;;;;;;;;12.20;99.90;;;;;;4971351;28;19922;-65
2022/06/09 03:41:12;;;;;;;;;;;12.20;99.90;;;;;;4971165;28;19956;-65
2022/06/09 03:43:38;;;;;;;;;;;12.10;99.90;;;;;;4971029;28;19918;-65
2022/06/09 03:46:04;;;;;;;;;;;12.20;99.90;;;;;;4971117;28;19910;-65
2022/06/09 03:48:30;;;;;;;;;;;12.20;99.90;;;;;;4971238;28;20267;-66
2022/06/09 03:50:55;;;;;;;;;;;12.30;99.90;;;;;;5002182;28;19929;-65
2022/06/09 03:53:21;;;;;;;;;;;12.20;99.90;;;;;;4971059;28;20370;-65
2022/06/09 03:55:47;;;;;;;;;;;12.20;99.90;;;;;;4973728;28;19910;-65
2022/06/09 03:58:12;;;;;;;;;;;12.20;99.90;;;;;;4974613;28;20064;-65
2022/06/09 04:00:38;;;;;;;;;;;12.20;99.90;;;;;;4974584;28;19992;-64
2022/06/09 04:03:04;;;;;;;;;;;12.20;99.90;;;;;;4963087;28;20290;-65
2022/06/09 04:05:30;;;;;;;;;;;12.20;99.90;;;;;;4960527;28;20293;-65
2022/06/09 04:07:57;;;;;;;;;;;12.20;99.90;;;;;;4974240;28;20370;-65
2022/06/09 04:10:24;;;;;;;;;;;12.10;99.90;;;;;;4974440;28;19992;-64
2022/06/09 04:12:50;;;;;;;;;;;12.10;99.90;;;;;;4974380;28;19906;-65
2022/06/09 04:15:16;;;;;;;;;;;12.00;99.90;;;;;;4973841;28;19917;-65
2022/06/09 04:17:42;;;;;;;;;;;11.90;99.90;;;;;;4971211;28;19953;-64
2022/06/09 04:20:08;;;;;;;;;;;11.90;99.90;;;;;;4971073;28;20019;-64
2022/06/09 04:22:33;;;;;;;;;;;11.90;99.90;;;;;;4973719;28;19922;-64
2022/06/09 04:24:59;;;;;;;;;;;11.80;99.90;;;;;;4974159;28;19910;-64
2022/06/09 04:27:25;;;;;;;;;;;11.80;99.90;;;;;;4974125;28;19922;-64
2022/06/09 04:29:50;;;;;;;;;;;11.90;99.90;;;;;;4973976;28;19978;-64
2022/06/09 04:32:16;;;;;;;;;;;11.90;99.90;;;;;;4971294;28;19997;-65
2022/06/09 04:34:42;;;;;;;;;;;11.90;99.90;;;;;;4970803;28;19906;-64
2022/06/09 04:37:08;;;;;;;;;;;11.90;99.90;;;;;;4970518;28;19918;-64
2022/06/09 04:39:33;;;;;;;;;;;11.90;99.90;;;;;;4956533;28;19953;-65
2022/06/09 04:41:59;;;;;;;;;;;11.90;99.90;;;;;;4954416;29;19953;-64
2022/06/09 04:44:24;;;;;;;;;;;11.90;99.90;;;;;;4954185;29;19915;-64
2022/06/09 04:46:50;;;;;;;;;;;11.90;99.90;;;;;;4954453;29;19913;-64
2022/06/09 04:49:15;;;;;;;;;;;11.90;99.90;;;;;;4952711;29;19957;-64
2022/06/09 04:51:41;;;;;;;;;;;12.00;99.90;;;;;;4953907;29;20382;-64
2022/06/09 04:54:07;;;;;;;;;;;12.00;99.90;;;;;;4954139;29;19917;-64
2022/06/09 04:56:33;;;;;;;;;;;12.10;99.90;;;;;;4954150;29;20331;-64
2022/06/09 04:58:59;;;;;;;;;;;12.10;99.90;;;;;;4954128;29;19964;-64
2022/06/09 05:01:26;;;;;;;;;;;12.30;99.90;;;;;;4983239;28;20009;-65
2022/06/09 05:03:52;;;;;;;;;;;12.40;99.90;;;;;;4951239;28;19929;-65
2022/06/09 05:06:18;;;;;;;;;;;12.40;99.90;;;;;;4962113;28;19910;-65
2022/06/09 05:08:44;;;;;;;;;;;12.50;99.90;;;;;;4973082;28;19909;-65
2022/06/09 05:11:09;;;;;;;;;;;12.50;99.90;;;;;;4973411;28;19917;-65
2022/06/09 05:13:35;;;;;;;;;;;12.60;99.90;;;;;;4973136;28;19965;-65
2022/06/09 05:16:01;;;;;;;;;;;12.70;99.90;;;;;;4973372;28;19960;-65
2022/06/09 05:18:28;;;;;;;;;;;12.70;99.90;;;;;;4973670;28;19945;-65
2022/06/09 05:20:56;;;;;;;;;;;12.80;99.90;;;;;;4972276;28;19910;-65
2022/06/09 05:23:22;;;;;;;;;;;12.80;99.90;;;;;;4970021;28;19925;-65
2022/06/09 05:25:48;;;;;;;;;;;12.90;99.90;;;;;;4970579;28;19910;-65
2022/06/09 05:28:15;;;;;;;;;;;12.90;99.90;;;;;;4973071;28;19938;-65
2022/06/09 05:30:41;;;;;;;;;;;13.00;99.90;;;;;;4973110;28;19906;-65
2022/06/09 05:33:07;;;;;;;;;;;13.00;99.90;;;;;;4973308;28;20602;-65
2022/06/09 05:35:32;;;;;;;;;;;13.10;99.90;;;;;;4972384;28;19989;-65
2022/06/09 05:46:15;;;;;;;;;;;13.40;99.90;;;;;;4969558;28;19964;-64
2022/06/09 05:48:45;;;;;;;;;;;13.50;99.90;;;;;;4969235;28;19913;-64
2022/06/09 05:51:11;;;;;;;;;;;13.60;99.90;;;;;;4970319;28;20004;-64
2022/06/09 05:53:37;;;;;;;;;;;13.70;99.90;;;;;;4972342;28;20361;-64
2022/06/09 05:56:03;;;;;;;;;;;13.80;99.90;;;;;;4972493;28;19906;-64
2022/06/09 05:58:29;;;;;;;;;;;14.00;99.90;;;;;;4972535;28;19914;-65
2022/06/09 06:00:54;;;;;;;;;;;14.10;99.90;;;;;;4971405;28;19968;-65
2022/06/09 06:03:20;;;;;;;;;;;14.20;99.90;;;;;;4969275;28;19925;-65
2022/06/09 06:08:30;;;;;;;;;;;14.40;99.90;;;;;;4953035;29;20383;-65
2022/06/09 06:10:56;;;;;;;;;;;14.50;99.90;;;;;;4952743;29;20008;-65
2022/06/09 06:13:22;;;;;;;;;;;14.60;99.90;;;;;;4952706;29;19917;-65
2022/06/09 06:15:47;;;;;;;;;;;14.70;99.90;;;;;;4952385;29;19911;-65
2022/06/09 06:18:13;;;;;;;;;;;14.80;99.90;;;;;;4949248;28;19984;-65
2022/06/09 06:20:39;;;;;;;;;;;14.90;99.90;;;;;;4949465;29;20005;-65
2022/06/09 06:23:04;;;;;;;;;;;15.00;99.90;;;;;;4951376;29;19918;-66
2022/06/09 06:25:30;;;;;;;;;;;15.20;99.90;;;;;;4949477;29;19925;-66
2022/06/09 06:27:57;;;;;;;;;;;15.20;99.90;;;;;;4949589;29;20397;-66
2022/06/09 06:30:23;;;;;;;;;;;15.40;99.90;;;;;;4952301;29;20027;-66
2022/06/09 06:32:48;;;;;;;;;;;15.50;99.90;;;;;;4952357;29;19910;-66
2022/06/09 06:35:14;;;;;;;;;;;15.70;99.90;;;;;;4956053;28;19906;-66
2022/06/09 06:37:40;;;;;;;;;;;15.70;99.90;;;;;;4971158;28;19961;-66
2022/06/09 06:40:06;;;;;;;;;;;15.80;99.90;;;;;;4971768;28;19992;-64
2022/06/09 06:42:32;;;;;;;;;;;15.90;99.90;;;;;;4967971;28;19919;-66
2022/06/09 06:44:57;;;;;;;;;;;16.00;99.90;;;;;;4950809;28;19906;-66
2022/06/09 06:47:23;;;;;;;;;;;16.10;99.90;;;;;;4950996;29;19913;-66
2022/06/09 06:49:48;;;;;;;;;;;16.20;99.90;;;;;;4952292;29;19917;-66
2022/06/09 06:52:14;;;;;;;;;;;16.40;99.90;;;;;;4982672;28;19966;-66
2022/06/09 06:54:39;;;;;;;;;;;16.30;99.90;;;;;;4952093;29;20284;-66
2022/06/09 06:57:05;;;;;;;;;;;16.30;99.90;;;;;;4952103;29;20278;-66
2022/06/09 06:59:32;;;;;;;;;;;16.30;99.90;;;;;;4952008;29;20331;-66
2022/06/09 07:01:57;;;;;;;;;;;16.10;99.90;;;;;;4949761;28;19945;-65
2022/06/09 07:04:23;;;;;;;;;;;16.30;99.90;;;;;;4948609;29;20023;-65
2022/06/09 07:06:48;;;;;;;;;;;16.40;99.90;;;;;;4964757;28;19910;-65
2022/06/09 07:09:14;;;;;;;;;;;16.60;99.90;;;;;;4971295;28;20001;-65
2022/06/09 07:11:40;;;;;;;;;;;16.80;99.90;;;;;;4971430;28;19920;-64
2022/06/09 07:14:05;;;;;;;;;;;17.10;99.90;;;;;;4971446;28;19988;-65
2022/06/09 07:16:32;;;;;;;;;;;17.30;99.90;;;;;;4971451;28;19933;-64
2022/06/09 07:18:57;;;;;;;;;;;17.40;99.90;;;;;;4971511;28;20370;-64
2022/06/09 07:21:23;;;;;;;;;;;17.70;99.90;;;;;;4971091;28;19906;-64
2022/06/09 07:23:48;;;;;;;;;;;18.10;99.90;;;;;;4971063;28;19918;-64
2022/06/09 07:26:14;;;;;;;;;;;18.30;99.90;;;;;;4971360;28;19910;-64
2022/06/09 07:28:39;;;;;;;;;;;18.30;99.90;;;;;;4971299;28;19914;-64
2022/06/09 07:31:05;;;;;;;;;;;18.50;99.90;;;;;;4974521;28;19906;-64
2022/06/09 07:33:33;;;;;;;;;;;18.50;99.90;;;;;;4975251;28;19961;-65
2022/06/09 07:35:59;;;;;;;;;;;18.80;99.90;;;;;;4974824;28;19910;-64
2022/06/09 07:38:25;;;;;;;;;;;19.00;99.90;;;;;;4974787;28;19914;-63
2022/06/09 07:40:51;;;;;;;;;;;19.00;99.90;;;;;;4974825;28;20422;-64
2022/06/09 07:43:19;;;;;;;;;;;19.00;99.90;;;;;;4974645;28;19922;-64
2022/06/09 07:45:45;;;;;;;;;;;19.20;99.90;;;;;;4989407;28;19950;-64
2022/06/09 07:48:10;;;;;;;;;;;19.30;99.90;;;;;;4975205;28;19980;-64
2022/06/09 07:50:36;;;;;;;;;;;19.60;99.90;;;;;;4974278;28;20338;-64
2022/06/09 07:53:02;;;;;;;;;;;20.00;99.90;;;;;;4974674;28;19941;-64
2022/06/09 07:55:28;;;;;;;;;;;20.80;99.90;;;;;;4974795;28;19954;-64
2022/06/09 07:57:53;;;;;;;;;;;21.40;99.90;;;;;;4974710;28;19976;-64
2022/06/09 08:00:20;;;;;;;;;;;21.60;99.90;;;;;;4958761;28;19911;-63
2022/06/09 08:02:46;;;;;;;;;;;22.10;99.10;;;;;;4956267;28;19917;-64
2022/06/09 08:05:13;;;;;;;;;;;21.90;98.50;;;;;;4974494;28;19910;-64
2022/06/09 08:07:38;;;;;;;;;;;21.80;97.60;;;;;;4974291;28;19917;-64
2022/06/09 08:10:05;;;;;;;;;;;22.30;97.40;;;;;;4974288;28;20282;-65
2022/06/09 08:12:30;;;;;;;;;;;22.60;96.00;;;;;;4974186;28;19910;-67
2022/06/09 08:14:56;;;;;;;;;;;23.40;95.90;;;;;;4974611;28;19906;-67
2022/06/09 08:17:22;;;;;;;;;;;23.80;95.60;;;;;;4974496;28;20425;-65
2022/06/09 08:19:48;;;;;;;;;;;24.40;90.50;;;;;;4974421;28;19906;-66
2022/06/09 08:22:14;;;;;;;;;;;24.50;90.70;;;;;;4974203;28;20048;-65
2022/06/09 08:24:39;;;;;;;;;;;24.30;89.30;;;;;;4971540;28;20272;-64
2022/06/09 08:27:05;;;;;;;;;;;25.00;86.40;;;;;;4971472;28;20365;-65
2022/06/09 08:29:31;;;;;;;;;;;25.00;86.10;;;;;;4965410;28;19931;-65
2022/06/09 08:31:56;;;;;;;;;;;25.20;86.90;;;;;;4955592;28;20260;-63
2022/06/09 08:34:22;;;;;;;;;;;25.90;84.10;;;;;;4972178;28;20004;-64
2022/06/09 08:36:47;;;;;;;;;;;26.60;82.70;;;;;;4972717;28;20268;-63
2022/06/09 08:39:13;;;;;;;;;;;27.30;77.30;;;;;;4972995;28;19910;-63
2022/06/09 08:41:38;;;;;;;;;;;27.00;76.70;;;;;;4971033;28;19906;-63
2022/06/09 08:44:04;;;;;;;;;;;25.80;73.40;;;;;;4956211;28;19921;-62
2022/06/09 08:46:49;;;;;;;;;;;25.30;74.80;;;;;;4954110;29;19916;-62
2022/06/09 08:49:36;;;;;;;;;;;25.90;76.20;;;;;;4951047;29;19961;-63
2022/06/09 08:52:06;;;;;;;;;;;26.20;74.10;;;;;;4950112;29;19989;-61
2022/06/09 08:54:36;;;;;;;;;;;27.30;69.10;;;;;;4950565;29;19906;-62
2022/06/09 08:57:15;;;;;;;;;;;27.70;63.50;;;;;;4950817;29;19913;-61
2022/06/09 08:59:42;;;;;;;;;;;26.20;67.70;;;;;;4951303;29;19918;-63
2022/06/09 09:02:14;;;;;;;;;;;25.90;75.90;;;;;;4951134;28;20403;-65
2022/06/09 09:04:42;;;;;;;;;;;26.30;76.40;;;;;;4948854;29;19910;-67
2022/06/09 09:07:13;;;;;;;;;;;26.80;75.20;;;;;;4967337;28;19913;-66
2022/06/09 09:09:39;;;;;;;;;;;27.80;74.40;;;;;;4968361;28;20274;-61
2022/06/09 09:12:08;;;;;;;;;;;28.40;74.20;;;;;;4967756;28;19906;-62
2022/06/09 09:14:36;;;;;;;;;;;28.70;70.00;;;;;;4967736;28;20603;-62
2022/06/09 09:17:22;;;;;;;;;;;28.90;64.50;;;;;;4968680;28;19905;-64
2022/06/09 09:20:01;;;;;;;;;;;28.50;65.10;;;;;;4962747;28;20381;-62
2022/06/09 09:22:38;;;;;;;;;;;28.20;66.60;;;;;;4969549;28;19956;-62
2022/06/09 09:25:03;;;;;;;;;;;26.80;68.00;;;;;;4969850;28;20340;-62
2022/06/09 09:27:29;;;;;;;;;;;26.30;71.80;;;;;;4969833;28;20393;-62
2022/06/09 09:30:04;;;;;;;;;;;24.80;74.60;;;;;;4970004;28;19906;-61
2022/06/09 09:32:36;;;;;;;;;;;25.30;81.50;;;;;;4969996;28;19921;-61
2022/06/09 09:35:05;;;;;;;;;;;25.10;79.00;;;;;;4969746;28;19910;-61
2022/06/09 09:37:37;;;;;;;;;;;24.70;79.50;;;;;;4969265;28;20476;-61
2022/06/09 09:40:22;;;;;;;;;;;24.20;79.30;;;;;;4969816;28;19910;-61
2022/06/09 09:42:49;;;;;;;;;;;24.00;85.80;;;;;;4969777;28;19922;-61
2022/06/09 09:45:16;;;;;;;;;;;23.80;85.90;;;;;;4969608;28;19906;-61
2022/06/09 09:48:00;;;;;;;;;;;23.70;88.50;;;;;;4969605;28;19906;-61
2022/06/09 09:50:46;;;;;;;;;;;23.60;89.80;;;;;;4969265;28;20410;-61
2022/06/09 09:53:21;;;;;;;;;;;23.20;90.40;;;;;;4969304;28;19909;-60
2022/06/09 09:55:50;;;;;;;;;;;22.90;91.20;;;;;;4961595;28;19913;-61
2022/06/09 09:58:42;;;;;;;;;;;22.80;92.80;;;;;;4950572;29;19906;-61
2022/06/09 10:01:16;;;;;;;;;;;22.90;93.20;;;;;;4941628;29;19914;-61
2022/06/09 10:09:21;;;;;;;;;;;22.50;92.40;;;;;;4971931;28;19948;-60
2022/06/09 10:11:53;;;;;;;;;;;22.70;94.50;;;;;;4972468;28;19985;-60
2022/06/09 10:14:38;;;;;;;;;;;22.60;94.40;;;;;;4972510;28;19952;-61
2022/06/09 10:17:05;;;;;;;;;;;22.50;94.90;;;;;;4971446;28;19917;-62
2022/06/09 10:19:33;;;;;;;;;;;22.20;95.20;;;;;;4971856;28;20393;-62
2022/06/09 10:22:04;;;;;;;;;;;21.60;94.70;;;;;;4971177;28;20404;-63
2022/06/09 10:24:44;;;;;;;;;;;21.60;95.30;;;;;;4971878;28;19914;-61
2022/06/09 10:27:10;;;;;;;;;;;21.60;96.50;;;;;;4972202;28;20141;-61
2022/06/09 10:29:56;;;;;;;;;;;21.80;97.00;;;;;;4969242;28;20433;-63
2022/06/09 10:32:32;;;;;;;;;;;21.90;95.50;;;;;;4964814;28;20012;-63
2022/06/09 10:34:59;;;;;;;;;;;21.90;95.90;;;;;;4970111;28;19933;-62
2022/06/09 10:37:43;;;;;;;;;;;22.10;96.50;;;;;;4970042;28;19925;-62
2022/06/09 10:40:18;;;;;;;;;;;22.00;96.40;;;;;;4968600;28;19956;-63
2022/06/09 10:42:52;;;;;;;;;;;21.70;97.50;;;;;;4968443;28;19988;-63
2022/06/09 10:45:37;;;;;;;;;;;21.40;98.00;;;;;;4966800;28;19914;-63
2022/06/09 10:57:12;;;;;;;;;;;20.20;99.90;;;;;;4929569;29;19914;-61
2022/06/09 10:59:38;;;;;;;;;;;20.20;99.90;;;;;;4928192;29;19914;-59
2022/06/09 11:02:10;;;;;;;;;;;20.00;99.90;;;;;;4932365;29;19926;-61
2022/06/09 11:04:35;;;;;;;;;;;20.00;99.90;;;;;;4932967;29;19915;-62
2022/06/09 11:07:01;;;;;;;;;;;20.20;99.90;;;;;;4969641;28;19921;-61
2022/06/09 11:09:36;;;;;;;;;;;20.40;99.90;;;;;;4972574;28;19906;-60
2022/06/09 11:12:14;;;;;;;;;;;20.60;99.90;;;;;;4971024;28;19960;-60
2022/06/09 11:14:42;;;;;;;;;;;20.70;99.90;;;;;;4970631;28;19906;-60
2022/06/09 11:17:19;;;;;;;;;;;21.00;99.90;;;;;;4969079;28;19964;-60
2022/06/09 11:19:49;;;;;;;;;;;21.20;99.90;;;;;;4960916;28;20417;-59
2022/06/09 11:22:27;;;;;;;;;;;21.20;99.90;;;;;;4945692;28;20356;-59
2022/06/09 11:25:01;;;;;;;;;;;21.10;99.90;;;;;;4950689;28;19965;-60
2022/06/09 11:27:46;;;;;;;;;;;21.60;99.90;;;;;;4951861;28;19906;-60
2022/06/09 11:30:15;;;;;;;;;;;21.30;99.90;;;;;;4952543;28;19929;-60
2022/06/09 11:32:48;;;;;;;;;;;20.90;99.90;;;;;;4969184;28;19925;-60
2022/06/09 11:35:32;;;;;;;;;;;20.90;99.90;;;;;;4970691;28;19953;-60
2022/06/09 11:38:04;;;;;;;;;;;20.60;99.90;;;;;;4970642;28;20242;-61
2022/06/09 11:40:38;;;;;;;;;;;20.30;99.90;;;;;;4971635;28;19906;-62
2022/06/09 11:43:22;;;;;;;;;;;20.30;99.90;;;;;;4971600;28;19910;-61
2022/06/09 11:45:48;;;;;;;;;;;20.30;99.90;;;;;;4971867;28;19906;-62
2022/06/09 11:48:35;;;;;;;;;;;20.50;99.90;;;;;;4971945;28;19960;-61
2022/06/09 11:51:01;;;;;;;;;;;20.20;99.90;;;;;;4971645;28;19910;-62
2022/06/09 11:53:29;;;;;;;;;;;20.50;99.90;;;;;;4971537;28;19910;-63
2022/06/09 11:56:13;;;;;;;;;;;20.60;99.90;;;;;;4971812;28;20282;-62
2022/06/09 11:58:43;;;;;;;;;;;21.10;99.90;;;;;;4971835;28;19910;-63
2022/06/09 12:01:12;;;;;;;;;;;21.00;99.90;;;;;;4955447;28;19913;-64
2022/06/09 12:03:57;;;;;;;;;;;21.20;99.90;;;;;;4952445;29;19945;-63
2022/06/09 12:06:34;;;;;;;;;;;21.40;99.80;;;;;;4964949;28;19937;-63
2022/06/09 12:09:20;;;;;;;;;;;21.30;98.80;;;;;;4971298;28;20355;-64
2022/06/09 12:12:01;;;;;;;;;;;21.20;99.00;;;;;;4967437;28;20465;-63
2022/06/09 12:14:29;;;;;;;;;;;21.40;99.90;;;;;;4971182;28;19910;-63
2022/06/09 12:17:13;;;;;;;;;;;21.20;99.60;;;;;;4971250;28;20371;-64
2022/06/09 12:19:50;;;;;;;;;;;21.40;99.90;;;;;;4971063;28;19906;-63
2022/06/09 12:22:34;;;;;;;;;;;21.30;99.90;;;;;;4970957;28;19906;-62
2022/06/09 12:25:04;;;;;;;;;;;21.10;99.70;;;;;;4971070;28;19972;-63
2022/06/09 12:27:35;;;;;;;;;;;21.10;99.90;;;;;;4971055;28;19956;-63
2022/06/09 12:30:01;;;;;;;;;;;21.20;99.70;;;;;;4971073;28;19914;-63
2022/06/09 12:32:39;;;;;;;;;;;21.30;99.30;;;;;;4971308;28;19906;-63
2022/06/09 12:35:15;;;;;;;;;;;21.60;99.20;;;;;;4970897;28;19910;-63
2022/06/09 12:37:47;;;;;;;;;;;22.00;99.30;;;;;;4984969;28;19997;-64
2022/06/09 12:40:16;;;;;;;;;;;22.20;96.80;;;;;;4970992;28;19920;-64
2022/06/09 12:42:46;;;;;;;;;;;23.00;95.00;;;;;;4970651;28;19937;-63
2022/06/09 12:45:18;;;;;;;;;;;23.90;93.40;;;;;;4968905;28;20267;-64
2022/06/09 12:47:52;;;;;;;;;;;24.50;88.00;;;;;;4950880;28;19910;-63
2022/06/09 12:50:24;;;;;;;;;;;24.50;83.30;;;;;;4950769;28;19953;-62
2022/06/09 12:52:51;;;;;;;;;;;24.40;83.80;;;;;;4950949;28;19914;-62
2022/06/09 12:55:30;;;;;;;;;;;23.70;82.80;;;;;;4952549;28;20287;-62
2022/06/09 12:57:57;;;;;;;;;;;23.50;88.20;;;;;;4949996;29;19918;-63
2022/06/09 13:00:29;;;;;;;;;;;23.80;89.50;;;;;;4951156;29;19910;-63
2022/06/09 13:02:54;;;;;;;;;;;23.10;90.00;;;;;;4951199;29;20359;-61
2022/06/09 13:05:20;;;;;;;;;;;23.30;91.40;;;;;;4955335;28;19910;-61
2022/06/09 13:08:06;;;;;;;;;;;23.50;91.70;;;;;;4969964;28;19913;-61
2022/06/09 13:10:36;;;;;;;;;;;23.50;90.00;;;;;;4966096;28;19918;-62
2022/06/09 13:13:02;;;;;;;;;;;23.40;87.50;;;;;;4970300;28;20282;-62
2022/06/09 13:15:43;;;;;;;;;;;22.90;88.30;;;;;;4969911;28;19906;-61
2022/06/09 13:18:14;;;;;;;;;;;23.10;90.90;;;;;;4970028;28;19949;-62
2022/06/09 13:20:44;;;;;;;;;;;23.20;90.90;;;;;;4970305;28;19906;-61
2022/06/09 13:23:12;;;;;;;;;;;22.90;89.90;;;;;;4969831;28;19941;-61
2022/06/09 13:25:38;;;;;;;;;;;23.30;89.70;;;;;;4969737;28;19906;-61
2022/06/09 13:28:05;;;;;;;;;;;23.40;90.40;;;;;;4969196;28;19918;-61
2022/06/09 13:30:41;;;;;;;;;;;23.00;90.40;;;;;;4969587;28;19981;-61
2022/06/09 13:33:24;;;;;;;;;;;23.00;90.80;;;;;;4969764;28;19909;-62
2022/06/09 13:36:06;;;;;;;;;;;22.90;92.80;;;;;;4969380;28;19906;-62
2022/06/09 13:38:32;;;;;;;;;;;22.60;93.90;;;;;;4969759;28;19968;-61
2022/06/09 13:41:08;;;;;;;;;;;22.90;94.90;;;;;;4969898;28;19910;-62
2022/06/09 13:43:38;;;;;;;;;;;23.10;95.50;;;;;;4969618;28;19968;-63
2022/06/09 13:46:09;;;;;;;;;;;22.40;93.70;;;;;;4969473;28;19910;-63
2022/06/09 13:48:45;;;;;;;;;;;22.10;94.20;;;;;;4969562;28;19993;-63
2022/06/09 13:51:21;;;;;;;;;;;22.40;95.50;;;;;;4969303;28;19917;-64
2022/06/09 13:54:00;;;;;;;;;;;22.50;95.70;;;;;;4969516;28;20326;-62
2022/06/09 13:56:25;;;;;;;;;;;22.50;95.00;;;;;;4955817;28;19911;-62
2022/06/09 13:58:51;;;;;;;;;;;22.10;96.70;;;;;;4949670;28;19933;-61
2022/06/09 14:01:17;;;;;;;;;;;21.20;98.00;;;;;;4951659;28;20402;-62
2022/06/09 14:03:46;;;;;;;;;;;21.40;99.50;;;;;;4949400;29;19942;-61
2022/06/09 14:06:18;;;;;;;;;;;20.90;99.30;;;;;;4960268;28;20291;-61
2022/06/09 14:08:45;;;;;;;;;;;20.60;99.30;;;;;;4967862;28;19906;-62
2022/06/09 14:11:14;;;;;;;;;;;20.80;99.90;;;;;;4968875;28;20367;-62
2022/06/09 14:13:40;;;;;;;;;;;20.80;99.60;;;;;;4968827;28;19910;-61
2022/06/09 14:16:06;;;;;;;;;;;20.50;99.90;;;;;;4968607;28;19910;-62
2022/06/09 14:18:33;;;;;;;;;;;20.60;99.60;;;;;;4983659;28;20294;-61
2022/06/09 14:20:59;;;;;;;;;;;20.60;99.90;;;;;;4968613;28;19936;-64
2022/06/09 14:23:33;;;;;;;;;;;20.40;99.90;;;;;;4968439;28;19914;-60
2022/06/09 14:26:03;;;;;;;;;;;20.40;99.90;;;;;;4968699;28;19906;-61
2022/06/09 14:28:31;;;;;;;;;;;20.60;99.90;;;;;;4968651;28;20060;-63
2022/06/09 14:30:57;;;;;;;;;;;20.40;99.70;;;;;;4959520;28;20294;-63
2022/06/09 14:33:22;;;;;;;;;;;20.50;99.90;;;;;;4948783;29;19913;-62
2022/06/09 14:35:48;;;;;;;;;;;20.60;99.90;;;;;;4956284;28;19910;-61
2022/06/09 14:38:14;;;;;;;;;;;20.80;99.90;;;;;;4968431;28;19918;-62
2022/06/09 14:40:41;;;;;;;;;;;20.60;99.90;;;;;;4968375;28;20280;-62
2022/06/09 14:43:07;;;;;;;;;;;20.40;99.90;;;;;;4968653;28;19961;-62
2022/06/09 14:45:34;;;;;;;;;;;20.20;99.90;;;;;;4968156;28;20004;-63
2022/06/09 14:48:00;;;;;;;;;;;20.40;99.90;;;;;;4965377;28;20000;-62
2022/06/09 14:50:26;;;;;;;;;;;20.10;99.90;;;;;;4953283;28;19910;-64
2022/06/09 14:52:51;;;;;;;;;;;20.30;99.90;;;;;;4948849;28;19911;-64